No se requiere ningun cuidado especial respecto a la situación metereológica.   -   No hay avisos

Informes METAR

 

KSJC - San Jose, California, USA
Distancia de la estación: NE 14km
Actualización: 17/07/2019 18:53
Parcialmente nuboso
Parcialmente nuboso
 Viento de SE
Viento: SE 15 km/h
Temperatura: 19°C
Rocío: 13°C
Humedad: 68%
Barómetro: 1012.9 hPa
Nubes: Parcialmente nuboso
Visibilidad: 16 km
Detalles de las nubes: Poco nuboso 335 m
Parcialmente nuboso 2438 m
Parcialmente nuboso 3962 m
2019/07/17 16:53 KSJC 171653Z 13008KT 10SM FEW011 SCT080 SCT130 19/13 A2991 RMK AO2 SLP127 T01940128
KNUQ - Moffett Nas/Mtn, California, USA
Distancia de la estación: N 14km
Actualización: 17/07/2019 18:56
Despejado
Despejado
 Viento de calm
Viento: Calma
Temperatura: 21°C
Rocío: 12°C
Humedad: 57%
Barómetro: 1013.2 hPa
Nubes: Despejado
Visibilidad: 16 km
2019/07/17 16:56 KNUQ 171656Z 00000KT 10SM CLR 21/12 A2992 RMK AO2 SLP132 T02110122 $
 
KPAO - Palo Alto, California, USA
Distancia de la estación: NNO 23km
Actualización: 17/07/2019 18:47
Despejado
Despejado
 Viento de E
Viento: E 11 km/h
Temperatura: 19°C
Rocío: 13°C
Humedad: 68%
Barómetro: 1012.9 hPa
Nubes: Despejado
Visibilidad: 16 km
2019/07/17 16:47 KPAO 171647Z 08006KT 10SM SKC 19/13 A2991
KRHV - San Jose/Reid, California, USA
Distancia de la estación: ENE 19km
Actualización: 17/07/2019 18:47
Despejado
Despejado
 Viento de SSE
Viento: SSE 19 km/h
Temperatura: 19°C
Rocío: 12°C
Humedad: 64%
Barómetro: 1012.9 hPa
Nubes: Despejado
Visibilidad: 16 km
2019/07/17 16:47 KRHV 171647Z 16010KT 10SM SKC 19/12 A2991
 
KOAK - Oakland, California, USA
Distancia de la estación: NNO 50km
Actualización: 17/07/2019 18:53
Poco nuboso
Poco nuboso
 Viento de S
Viento: S 13 km/h
Temperatura: 19°C
Rocío: 13°C
Humedad: 68%
Barómetro: 1013.2 hPa
Nubes: Poco nuboso
Visibilidad: 16 km
Detalles de las nubes: Poco nuboso 427 m
2019/07/17 16:53 KOAK 171653Z 18007KT 10SM FEW014 19/13 A2992 RMK AO2 SLP132 T01940128
KSQL - San Carlos Airpo, California, USA
Distancia de la estación: NO 34km
Actualización: 17/07/2019 18:53
Despejado
Despejado
 Viento de calm
Viento: Calma
Temperatura: 19°C
Rocío: 13°C
Humedad: 68%
Barómetro: 1013.2 hPa
Nubes: Despejado
Visibilidad: 16 km
2019/07/17 16:53 KSQL 171653Z 00000KT 10SM SKC 19/13 A2992
 
KSFO - San Francisco, California, USA
Distancia de la estación: NO 49km
Actualización: 17/07/2019 18:56
Poco nuboso
Poco nuboso
 Viento de NE
Viento: NE 11 km/h
Temperatura: 19°C
Rocío: 13°C
Humedad: 68%
Barómetro: 1012.9 hPa
Nubes: Poco nuboso
Visibilidad: 14 km
Detalles de las nubes: Poco nuboso 274 m
Poco nuboso 762 m
2019/07/17 16:56 KSFO 171656Z 05006KT 9SM FEW009 FEW025 19/13 A2991 RMK AO2 SLP128 T01940133
KE16 - San Martin, California, USA
Distancia de la estación: ESE 43km
Actualización: 17/07/2019 19:10
Muy nuboso
Muy nuboso
 Viento de S
Viento: S 15 km/h
Temperatura: 17°C
Rocío: 12°C
Humedad: 73%
Barómetro: 1014.2 hPa
Nubes: Muy nuboso
Visibilidad: 16 km
Detalles de las nubes: Muy nuboso 366 m
2019/07/17 17:10 KE16 171710Z AUTO 18008KT 150V210 10SM BKN012 17/12 A2995 RMK AO2
 
KWVI - Watsonville, California, USA
Distancia de la estación: SSE 44km
Actualización: 17/07/2019 18:53
Cubierto
Cubierto
 Viento de SSE
Viento: SSE 7 km/h
Temperatura: 16°C
Rocío: 12°C
Humedad: 77%
Barómetro: 1014.2 hPa
Nubes: Cubierto
Visibilidad: 16 km
Detalles de las nubes: Cubierto 305 m
2019/07/17 16:53 KWVI 171653Z AUTO 15004KT 10SM OVC010 16/12 A2995 RMK AO2 SLP140 T01610122
KHAF - Half Moon Bay, California, USA
Distancia de la estación: ONO 50km
Actualización: 17/07/2019 19:35
Cubierto
Cubierto
 Viento de SSE
Viento: SSE 15 km/h
Temperatura: 15°C
Rocío: 13°C
Humedad: 88%
Barómetro: 1013.9 hPa
Nubes: Cubierto
Visibilidad: 11 km
Detalles de las nubes: Cubierto 244 m
2019/07/17 17:35 KHAF 171735Z AUTO 15008KT 7SM OVC008 15/13 A2994 RMK AO2
 
KHWD - Hayward, California, USA
Distancia de la estación: N 44km
Actualización: 17/07/2019 18:54
Despejado
Despejado
 Viento de variable
Viento: variable 7 km/h
Temperatura: 19°C
Rocío: 12°C
Humedad: 64%
Barómetro: 1012.9 hPa
Nubes: Despejado
Visibilidad: 16 km
2019/07/17 16:54 KHWD 171654Z AUTO VRB04KT 10SM CLR 19/12 A2991 RMK AO2 SLP137 T01940122
KLVK - Livermore, California, USA
Distancia de la estación: NNE 51km
Actualización: 17/07/2019 18:53
Despejado
Despejado
 Viento de variable
Viento: variable 7 km/h
Temperatura: 21°C
Rocío: 12°C
Humedad: 57%
Barómetro: 1012.5 hPa
Nubes: Despejado
Visibilidad: 16 km
2019/07/17 16:53 KLVK 171653Z VRB04KT 10SM CLR 21/12 A2990 RMK AO2 SLP122 T02060122